Aviation Digital Data Service (ADDS)

Output produced by TAFs form (2115 UTC 09 December 2016)
found at http://www.aviationweather.gov/adds/tafs/
 
KABE 091739Z 0918/1018 31014G23KT P6SM BKN050 
     FM092200 29009KT P6SM SCT050 
     FM100500 28005KT P6SM BKN060 
     FM101200 17006KT P6SM SCT040 BKN200